createdAt,value
2023-05-14T00:00:57.220Z,11.30
2023-05-14T00:06:04.715Z,11.30
2023-05-14T00:11:12.202Z,10.80
2023-05-14T00:16:19.512Z,10.30
2023-05-14T00:21:26.949Z,10.90
2023-05-14T00:26:34.541Z,10.50
2023-05-14T00:31:41.887Z,12.60
2023-05-14T00:36:49.570Z,10.60
2023-05-14T00:41:57.092Z,10.50
2023-05-14T00:47:05.179Z,10.30
2023-05-14T00:52:14.735Z,12.00
2023-05-14T00:57:22.770Z,11.50
2023-05-14T01:02:30.252Z,11.40
2023-05-14T01:07:51.245Z,12.40
2023-05-14T01:13:05.850Z,12.30
2023-05-14T01:18:15.729Z,13.90
2023-05-14T01:23:23.603Z,12.60
2023-05-14T01:28:35.777Z,12.10
2023-05-14T01:33:45.081Z,13.60
2023-05-14T01:38:53.561Z,11.60
2023-05-14T01:44:01.340Z,13.00
2023-05-14T01:49:09.003Z,12.00
2023-05-14T01:54:16.492Z,12.50
2023-05-14T01:59:23.749Z,11.80
2023-05-14T02:04:31.038Z,12.20
2023-05-14T02:09:38.365Z,11.90
2023-05-14T02:14:46.447Z,13.60
2023-05-14T02:19:53.967Z,13.10
2023-05-14T02:25:01.519Z,11.10
2023-05-14T02:30:10.684Z,11.40
2023-05-14T02:35:19.531Z,11.30
2023-05-14T02:40:27.095Z,11.20
2023-05-14T02:45:34.697Z,10.80
2023-05-14T02:50:42.023Z,11.50
2023-05-14T02:55:49.385Z,11.20
2023-05-14T03:00:56.976Z,10.00
2023-05-14T03:06:05.216Z,11.90
2023-05-14T03:11:13.093Z,11.30
2023-05-14T03:16:20.775Z,11.20
2023-05-14T03:21:28.243Z,11.40
2023-05-14T03:26:35.571Z,12.60
2023-05-14T03:31:42.989Z,11.70
2023-05-14T03:36:50.951Z,11.00
2023-05-14T03:41:59.352Z,10.50
2023-05-14T03:47:07.909Z,9.90
2023-05-14T03:52:15.389Z,10.60
2023-05-14T03:57:24.309Z,10.90
2023-05-14T04:02:31.672Z,11.20
2023-05-14T04:07:39.077Z,11.40
2023-05-14T04:12:46.560Z,11.00
2023-05-14T04:17:54.231Z,10.50
2023-05-14T04:23:01.563Z,11.20
2023-05-14T04:28:09.166Z,9.20
2023-05-14T04:33:16.411Z,8.90
2023-05-14T04:38:24.183Z,9.20
2023-05-14T04:43:31.506Z,8.60
2023-05-14T04:48:39.146Z,8.80
2023-05-14T04:53:46.956Z,7.80
2023-05-14T04:58:54.543Z,8.90
2023-05-14T05:04:01.893Z,8.50
2023-05-14T05:09:10.468Z,9.20
2023-05-14T05:14:17.868Z,8.40
2023-05-14T05:19:35.746Z,8.50
2023-05-14T05:24:49.812Z,8.90
2023-05-14T05:29:57.931Z,8.30
2023-05-14T05:35:05.624Z,8.80
2023-05-14T05:40:14.782Z,8.60
2023-05-14T05:45:22.642Z,8.20
2023-05-14T05:50:30.513Z,7.70
2023-05-14T05:55:38.212Z,7.70
2023-05-14T06:00:45.870Z,7.40
2023-05-14T06:05:53.590Z,7.40
2023-05-14T06:11:01.131Z,7.60
2023-05-14T06:16:09.355Z,7.00
2023-05-14T06:21:16.764Z,7.00
2023-05-14T06:26:24.784Z,6.30
2023-05-14T06:31:32.361Z,6.90
2023-05-14T06:36:39.905Z,6.40
2023-05-14T06:41:47.463Z,6.30
2023-05-14T06:46:55.382Z,6.70
2023-05-14T06:52:04.467Z,5.70
2023-05-14T06:57:12.383Z,5.90
2023-05-14T07:02:20.651Z,5.70
2023-05-14T07:07:28.489Z,5.40
2023-05-14T07:12:37.284Z,5.40
2023-05-14T07:17:44.777Z,5.30
2023-05-14T07:22:52.967Z,4.90
2023-05-14T07:28:00.499Z,5.00
2023-05-14T07:33:08.134Z,4.70
2023-05-14T07:38:16.066Z,4.80
2023-05-14T07:43:24.082Z,4.30
2023-05-14T07:48:31.914Z,4.20
2023-05-14T07:53:39.893Z,4.10
2023-05-14T07:58:47.766Z,4.40
2023-05-14T08:03:55.579Z,4.30
2023-05-14T08:09:05.837Z,3.90
2023-05-14T08:14:13.778Z,4.50
2023-05-14T08:19:21.872Z,4.30
2023-05-14T08:24:30.588Z,4.00
2023-05-14T08:29:38.467Z,4.30
2023-05-14T08:34:45.948Z,3.60
2023-05-14T08:39:54.449Z,4.00
2023-05-14T08:45:05.133Z,3.60
2023-05-14T08:50:13.814Z,3.30
2023-05-14T08:55:21.903Z,3.20
2023-05-14T09:00:29.884Z,3.30
2023-05-14T09:05:37.453Z,3.30
2023-05-14T09:10:44.963Z,3.30
2023-05-14T09:15:53.491Z,3.20
2023-05-14T09:21:02.368Z,3.10
2023-05-14T09:26:11.069Z,2.70
2023-05-14T09:31:18.611Z,2.80
2023-05-14T09:36:27.826Z,2.80
2023-05-14T09:41:35.149Z,2.70
2023-05-14T09:46:42.689Z,2.80
2023-05-14T09:51:50.706Z,2.70
2023-05-14T09:56:58.397Z,2.90
2023-05-14T10:02:07.268Z,2.20
2023-05-14T10:07:16.996Z,2.50
2023-05-14T10:12:31.352Z,3.20
2023-05-14T10:17:43.239Z,3.00
2023-05-14T10:22:50.801Z,3.00
2023-05-14T10:27:58.711Z,3.30
2023-05-14T10:33:14.725Z,3.10
2023-05-14T10:38:31.157Z,3.00
2023-05-14T10:43:41.943Z,2.80
2023-05-14T10:48:50.679Z,2.80
2023-05-14T10:53:59.071Z,2.90
2023-05-14T10:59:08.386Z,2.50
2023-05-14T11:04:25.373Z,2.90
2023-05-14T11:09:34.203Z,2.70
2023-05-14T11:14:41.879Z,2.40
2023-05-14T11:19:51.080Z,2.50
2023-05-14T11:24:59.822Z,2.70
2023-05-14T11:30:14.418Z,3.40
2023-05-14T11:35:22.020Z,2.70
2023-05-14T11:40:29.556Z,3.20
2023-05-14T11:45:38.473Z,2.60
2023-05-14T11:50:49.296Z,2.70
2023-05-14T11:55:58.775Z,2.50
2023-05-14T12:01:06.628Z,2.50
2023-05-14T12:06:13.993Z,2.80
2023-05-14T12:11:24.667Z,2.70
2023-05-14T12:16:36.907Z,2.70
2023-05-14T12:21:48.115Z,3.00
2023-05-14T12:26:55.992Z,2.90
2023-05-14T12:32:05.082Z,2.70
2023-05-14T12:37:12.835Z,2.10
2023-05-14T12:42:20.425Z,2.30
2023-05-14T12:47:28.288Z,2.60
2023-05-14T12:52:39.661Z,2.60
2023-05-14T12:57:48.497Z,2.40
2023-05-14T13:02:56.396Z,2.20
2023-05-14T13:08:04.847Z,2.10
2023-05-14T13:13:15.342Z,2.40
2023-05-14T13:18:27.864Z,2.50
2023-05-14T13:23:35.852Z,2.10
2023-05-14T13:28:43.311Z,2.30
2023-05-14T13:33:50.831Z,2.30
2023-05-14T13:38:58.627Z,2.10
2023-05-14T13:44:06.790Z,2.30
2023-05-14T13:49:14.368Z,2.00
2023-05-14T13:54:21.859Z,2.70
2023-05-14T13:59:30.207Z,2.10
2023-05-14T14:04:38.127Z,1.90
2023-05-14T14:09:45.619Z,1.90
2023-05-14T14:14:53.425Z,2.00
2023-05-14T14:20:00.860Z,2.20
2023-05-14T14:25:09.630Z,2.00
2023-05-14T14:30:17.978Z,1.80
2023-05-14T14:35:25.787Z,2.50
2023-05-14T14:40:34.600Z,2.60
2023-05-14T14:45:43.265Z,2.40
2023-05-14T14:50:50.857Z,2.20
2023-05-14T14:55:59.084Z,2.20
2023-05-14T15:01:06.747Z,2.10
2023-05-14T15:06:14.651Z,2.30
2023-05-14T15:11:22.721Z,2.30
2023-05-14T15:16:30.240Z,2.40
2023-05-14T15:21:38.269Z,2.10
2023-05-14T15:26:46.667Z,2.10
2023-05-14T15:31:54.484Z,2.30
2023-05-14T15:37:02.062Z,2.20
2023-05-14T15:42:10.647Z,2.00
2023-05-14T15:47:18.523Z,2.30
2023-05-14T15:52:26.265Z,2.20
2023-05-14T15:57:33.770Z,2.20
2023-05-14T16:02:41.871Z,2.10
2023-05-14T16:07:49.731Z,2.20
2023-05-14T16:13:01.110Z,2.40
2023-05-14T16:18:09.043Z,2.10
2023-05-14T16:23:16.613Z,2.00
2023-05-14T16:28:23.926Z,2.40
2023-05-14T16:33:31.517Z,2.80
2023-05-14T16:38:44.727Z,2.20
2023-05-14T16:44:00.649Z,2.50
2023-05-14T16:49:08.206Z,3.80
2023-05-14T16:54:17.956Z,3.70
2023-05-14T16:59:26.064Z,3.10
2023-05-14T17:04:33.873Z,2.80
2023-05-14T17:09:42.959Z,3.20
2023-05-14T17:14:50.572Z,3.00
2023-05-14T17:19:58.657Z,3.50
2023-05-14T17:25:06.733Z,3.30
2023-05-14T17:30:15.536Z,3.20
2023-05-14T17:35:24.321Z,3.70
2023-05-14T17:40:31.868Z,3.60
2023-05-14T17:45:53.185Z,4.80
2023-05-14T17:51:02.356Z,3.60
2023-05-14T17:56:10.929Z,3.80
2023-05-14T18:01:18.878Z,4.00
2023-05-14T18:06:27.024Z,3.70
2023-05-14T18:11:35.099Z,4.20
2023-05-14T18:16:43.415Z,5.10
2023-05-14T18:21:51.738Z,5.10
2023-05-14T18:26:59.529Z,4.10
2023-05-14T18:32:09.234Z,4.10
2023-05-14T18:37:17.354Z,4.10
2023-05-14T18:42:25.392Z,4.30
2023-05-14T18:47:33.393Z,4.80
2023-05-14T18:52:40.924Z,4.50
2023-05-14T18:57:49.474Z,4.80
2023-05-14T19:02:58.696Z,5.50
2023-05-14T19:08:06.802Z,5.50
2023-05-14T19:13:18.344Z,5.60
2023-05-14T19:18:26.182Z,6.20
2023-05-14T19:23:34.029Z,6.70
2023-05-14T19:28:43.436Z,6.40
2023-05-14T19:33:51.943Z,6.80
2023-05-14T19:39:06.500Z,7.00
2023-05-14T19:44:14.023Z,7.00
2023-05-14T19:49:21.381Z,7.90
2023-05-14T19:54:29.425Z,7.40
2023-05-14T19:59:38.809Z,7.10
2023-05-14T20:04:46.488Z,6.20
2023-05-14T20:09:54.315Z,7.10
2023-05-14T20:15:02.382Z,7.20
2023-05-14T20:20:12.475Z,7.40
2023-05-14T20:25:20.595Z,6.80
2023-05-14T20:30:27.891Z,6.70
2023-05-14T20:35:35.274Z,7.20
2023-05-14T20:40:45.014Z,6.70
2023-05-14T20:45:54.815Z,6.90
2023-05-14T20:51:05.359Z,7.30
2023-05-14T20:56:12.886Z,6.70
2023-05-14T21:01:21.364Z,6.90
2023-05-14T21:06:29.069Z,6.70
2023-05-14T21:11:36.763Z,6.30
2023-05-14T21:16:45.337Z,6.80
2023-05-14T21:21:53.564Z,6.60
2023-05-14T21:27:00.861Z,6.60
2023-05-14T21:32:10.622Z,7.00
2023-05-14T21:37:18.675Z,7.00
2023-05-14T21:42:26.941Z,7.00
2023-05-14T21:47:36.666Z,6.40
2023-05-14T21:52:45.702Z,6.30
2023-05-14T21:57:54.089Z,6.30
2023-05-14T22:03:02.249Z,5.90
2023-05-14T22:08:11.178Z,5.90
2023-05-14T22:13:19.348Z,5.50
2023-05-14T22:18:29.120Z,5.70
2023-05-14T22:23:37.663Z,6.20
2023-05-14T22:28:46.504Z,5.60
2023-05-14T22:33:54.762Z,5.90
2023-05-14T22:39:04.180Z,5.50
2023-05-14T22:44:11.905Z,5.90
2023-05-14T22:49:19.658Z,5.20
2023-05-14T22:54:27.940Z,5.50
2023-05-14T22:59:35.416Z,5.30
2023-05-14T23:04:43.327Z,5.90
2023-05-14T23:09:52.325Z,5.50
2023-05-14T23:15:01.560Z,5.90
2023-05-14T23:20:14.685Z,5.80
2023-05-14T23:25:22.455Z,6.20
2023-05-14T23:30:30.026Z,6.10
2023-05-14T23:35:37.574Z,6.70
2023-05-14T23:40:44.881Z,7.40
2023-05-14T23:45:52.306Z,6.80
2023-05-14T23:50:59.958Z,6.50
2023-05-14T23:56:08.499Z,6.80
